logo
Games tagged Tabletop
# Game Release date
Price
Score rank
(Userscore / Metascore)
Owners
Players
Playtime (Median)
Developer(s)
Publisher(s)
1 Field of Glory II Oct 12, 2017 $29.99N/A (N/A/84%)20,000 .. 50,0000%00:00 (00:00)Byzantine GamesSlitherine Ltd.
2 Card Hunter Jul 13, 2015 FreeN/A (N/A/80%)500,000 .. 1,000,0004.17%00:01 (00:00)Blue ManchuBlue Manchu
3 For The King Apr 19, 2018 $19.99N/A (N/A/79%)500,000 .. 1,000,00036%12:46 (13:00)IronOak GamesCurve Digital
4 Hand of Fate Feb 17, 2015 $19.99N/A (N/A/78%)500,000 .. 1,000,0000%00:00 (00:00)Defiant DevelopmentDefiant Development
5 RISK: Factions Mar 8, 2011 $9.99N/A (N/A/77%)100,000 .. 200,0000%00:00 (00:00)Stainless GamesElectronic Arts
6 Blood Bowl 2 Sep 22, 2015 $19.99N/A (N/A/76%)200,000 .. 500,0000%00:00 (00:00)Cyanide StudiosFocus Home Interactive
7 Gremlins, Inc. Mar 10, 2016 $3.74N/A (N/A/75%)200,000 .. 500,00010.71%05:58 (05:58)Alexey Bokulev, Sergei Klimov, Charlie Oscar Lima Tango Interactive EntertainmentThe Merchant Guild of Rund (Limited)
8 Armello Sep 1, 2015 $19.99N/A (N/A/75%)500,000 .. 1,000,0000%00:00 (00:00)League of GeeksLeague of Geeks
9 Cultist Simulator May 31, 2018 $19.99N/A (N/A/71%)200,000 .. 500,0003.7%14:47 (04:55)Weather FactoryWeather Factory
10 Rezrog May 31, 2017 $9.99N/A (N/A/70%)0 .. 20,000NAN%00:00 (00:00)SoaphogKasedo Games
11 WARTILE Feb 8, 2018 $19.99N/A (N/A/68%)20,000 .. 50,0000%00:00 (00:00)Playwood ProjectDeck13, WhisperGames
12 The Witcher Adventure Game Nov 27, 2014 $9.99N/A (N/A/68%)50,000 .. 100,0000%00:00 (00:00)CD PROJEKT RED, Can ExplodeCD PROJEKT RED
13 Chess 2: The Sequel Aug 19, 2014 $5.99N/A (N/A/62%)20,000 .. 50,0000%00:00 (00:00)Ludeme Games, Sirlin GamesLudeme Games
14 Talisman: Digital Edition Feb 25, 2014 $6.99N/A (N/A/51%)200,000 .. 500,0000%00:00 (00:00)Nomad GamesKonami Digital Entertainment
15 Small World 2 Dec 11, 2013 $9.99N/A (N/A)100,000 .. 200,0000%00:00 (00:00)Days of WonderDays of Wonder, Asmodee Digital
16 Elder Sign: Omens Nov 27, 2013 $5.99N/A (N/A)0 .. 20,000NAN%00:00 (00:00)Fantasy Flight Publishing, Inc.Fantasy Flight Publishing, Inc.
17 Blood Bowl: Chaos Edition Oct 11, 2012 $14.99N/A (N/A)200,000 .. 500,0000%00:00 (00:00)Cyanide StudiosFocus Home Interactive
18 Ticket to Ride May 24, 2012 $9.99N/A (N/A)500,000 .. 1,000,0000%00:00 (00:00)Days of WonderDays of Wonder, Asmodee Digital
19 Fantasy Grounds May 9, 2014 $39.99N/A (N/A)20,000 .. 50,0000%00:00 (00:00)SmiteWorks USA, LLCSmiteWorks USA, LLC
20 RISK: Global Domination Feb 19, 2020 FreeN/A (N/A)50,000 .. 100,000NAN%00:00 (00:00)SMG StudioSMG Studio
21 Abalone Apr 23, 2014 $6.99N/A (N/A)0 .. 20,0000%00:00 (00:00)Games-UpAsmodee Digital
22 Paperback: The Game Nov 8, 2017 $4.99N/A (N/A)0 .. 20,000NAN%00:00 (00:00)Mark FassettFowers Games
23 Hive Nov 15, 2013 $9.99N/A (N/A)50,000 .. 100,0000%00:00 (00:00)BlueLine GamesBlueLine Games
24 Wildermyth Nov 13, 2019 $19.99N/A (N/A)0 .. 20,000NAN%00:00 (00:00)Worldwalker Games LLCWorldwalker Games LLC, WhisperGames
25 Idle Chess Story Jun 18, 2019 FreeN/A (N/A)20,000 .. 50,000NAN%00:00 (00:00)Joaquin Telleria, Manuel TelleriaManuJoaco
26 Fated Kingdom Nov 4, 2019 $9.99N/A (N/A)0 .. 20,000NAN%00:00 (00:00)GameLibertyGameLiberty
27 U-BOOT The Board Game Apr 30, 2019 FreeN/A (N/A)0 .. 20,000NAN%00:00 (00:00)Iron Wolf StudioIron Wolf Studio, Phalanx (board game component)
28 Ludo Online: Classic Multiplayer Dice Board Game Oct 30, 2019 $0.99N/A (N/A)0 .. 20,000NAN%00:00 (00:00)Cytec BG Ltd.Cytec BG Ltd.
29 Imagination - Online Board game Jan 29, 2020 FreeN/A (N/A)0 .. 20,000NAN%00:00 (00:00)Creobit8Floor
30 Richman10 Oct 24, 2019 $13.99N/A (N/A)100,000 .. 200,00040%08:35 (05:42)Softstar Technology (Beijing) Co.,LtdSOFTSTAR Entertainment
31 Board Games VR Jan 12, 2020 $19.99N/A (N/A)0 .. 20,000NAN%00:00 (00:00)artArminartArmin
32 Axis & Allies 1942 Online Jul 31, 2019 $19.99N/A (N/A)50,000 .. 100,000NAN%00:00 (00:00)BeamdogBeamdog
33 Knight Swap 2 Dec 13, 2019 $0.69N/A (N/A)0 .. 20,000NAN%00:00 (00:00)Minimol GamesMinimol Games
34 Raiders of the North Sea Jul 30, 2019 $14.99N/A (N/A)0 .. 20,000NAN%00:00 (00:00)Dire WolfDire Wolf
35 Dragon Castle: The Board Game Dec 12, 2019 $8.99N/A (N/A)0 .. 20,000NAN%00:00 (00:00)Studio ClangoreHorrible Guild
36 Gloomhaven Jul 17, 2019 $24.99N/A (N/A)20,000 .. 50,000NAN%00:00 (00:00)Flaming Fowl StudiosAsmodee Digital
37 Cat Lady - The Card Game Dec 12, 2019 $4.99N/A (N/A)0 .. 20,000NAN%00:00 (00:00)Nomad GamesNomad Games
38 Canasta 3D Premium Jul 2, 2019 $6.99N/A (N/A)0 .. 20,000NAN%00:00 (00:00)BufoProjectBufoProject
39 Reiner Knizia Yellow & Yangtze Dec 12, 2019 $14.99N/A (N/A)0 .. 20,000NAN%00:00 (00:00)Dire WolfDire Wolf
40 Rummy 3D Premium Jun 24, 2019 $14.99N/A (N/A)0 .. 20,000NAN%00:00 (00:00)BufoProjectBufoProject
41 Puzzles and Board Games Mega Collection Jul 25, 2018 $6.99N/A (N/A)0 .. 20,000NAN%00:00 (00:00)Gunnar GamesGunnar Games
42 Classic Card Games 3D Nov 27, 2018 $19.99N/A (N/A)0 .. 20,000NAN%00:00 (00:00)BufoProjectBufoProject
43 Social Club VR : Casino Nights Jun 21, 2018 $19.99N/A (N/A)0 .. 20,000NAN%00:00 (00:00)Perilous OrbitPerilous Orbit
44 Istanbul: Digital Edition Oct 18, 2018 $9.99N/A (N/A)0 .. 20,000NAN%00:00 (00:00)Mobo Studio, Acram DigitalMobo Studio
45 Fort Sumter: The Secession Crisis May 21, 2019 $4.99N/A (N/A)0 .. 20,000NAN%00:00 (00:00)Playdek, Inc.Playdek, Inc.
46 Terraforming Mars Oct 17, 2018 $19.99N/A (N/A)50,000 .. 100,000NAN%00:00 (00:00)Asmodee DigitalAsmodee Digital
47 Talisman: Origins May 16, 2019 $6.99N/A (N/A)0 .. 20,000NAN%00:00 (00:00)Nomad GamesNomad Games
48 Chessia Sep 20, 2018 $7.99N/A (N/A)0 .. 20,000NAN%00:00 (00:00)Hakki Ozturk, Halil Ibrahim OzturkHakki Ozturk
49 Favor Chess May 3, 2019 FreeN/A (N/A)0 .. 20,000NAN%00:00 (00:00)JavissoftJavissoft
50 Pummel Party Sep 20, 2018 $14.99N/A (N/A)500,000 .. 1,000,00021.05%02:37 (02:33)Rebuilt GamesRebuilt Games
51 Galaxy Trucker: Extended Edition Mar 7, 2019 $9.99N/A (N/A)0 .. 20,0000%00:00 (00:00)CGE DigitalCGE Digital
52 Pandemic: The Board Game Aug 24, 2018 $9.99N/A (N/A)0 .. 20,0000%00:00 (00:00)Asmodee DigitalAsmodee Digital, Z-Man Games
53 Evolution Board Game Feb 12, 2019 $14.99N/A (N/A)0 .. 20,000NAN%00:00 (00:00)North Star Digital StudiosNorth Star Games
54 Hasbro's BATTLESHIP Aug 14, 2018 $9.99N/A (N/A)0 .. 20,000NAN%00:00 (00:00)Marmalade Game Studio LtdMarmalade Game Studio Ltd
55 Chess Sphere Dec 7, 2018 FreeN/A (N/A)0 .. 20,000NAN%00:00 (00:00)betamaximus-128betamaximus-128
56 ShyChess Jul 2, 2018 $1.99N/A (N/A)0 .. 20,000NAN%00:00 (00:00)Karosu-MakerKarosu-Maker
57 The Royal Game of Ur Nov 30, 2018 $2.99N/A (N/A)0 .. 20,000NAN%00:00 (00:00)Guido OutGuido Out
58 Pure Chess Grandmaster Edition Sep 9, 2016 $15.99N/A (N/A)0 .. 20,000NAN%00:00 (00:00)RipstoneRipstone
59 Through the Ages Mar 26, 2018 $15.99N/A (N/A)50,000 .. 100,0000%00:00 (00:00)CGE DigitalCGE Digital
60 Cards and Castles Dec 18, 2015 FreeN/A (N/A)100,000 .. 200,0000%00:00 (00:00)Red Team GamesRed Team Games
61 Epic Tavern Sep 13, 2017 $24.99N/A (N/A)0 .. 20,000NAN%00:00 (00:00)Hyperkinetic StudiosEpic Tavern Holdings
62 Board Defenders Sep 6, 2016 $4.99N/A (N/A)0 .. 20,0000%00:00 (00:00)Ludus StudioLudus Studio
63 Chessaria: The Tactical Adventure (Chess) Mar 8, 2018 $19.99N/A (N/A)0 .. 20,000NAN%00:00 (00:00)Pixel WizardsPixel Wizards
64 Gigachess Dec 15, 2015 $3.99N/A (N/A)0 .. 20,0000%00:00 (00:00)Drixxel SoftDrixxel Soft
65 Awkward Jun 4, 2018 $11.99N/A (N/A)0 .. 20,000NAN%00:00 (00:00)Snap Finger ClickSnap Finger Click
66 ChessVR Jul 7, 2016 $4.99N/A (N/A)0 .. 20,000NAN%00:00 (00:00)games.Sharbitgames.Sharbit
67 Battle Chess: Game of Kings Dec 11, 2015 $29.99N/A (N/A)0 .. 20,0000%00:00 (00:00)Olde Sküül, Sculptured SoftwareInterplay Entertainment Corp.
68 Descent: Road to Legend Jun 1, 2016 FreeN/A (N/A)50,000 .. 100,0000%00:00 (00:00)Fantasy Flight GamesFantasy Flight Games
69 Chess of Blades Jan 5, 2018 $24.99N/A (N/A)0 .. 20,000NAN%00:00 (00:00)Argent GamesArgent Games
70 3D Chess Dec 6, 2016 $9.99N/A (N/A)0 .. 20,000NAN%00:00 (00:00)bumblebeefamilyplay
71 One Deck Dungeon May 18, 2018 $9.99N/A (N/A)20,000 .. 50,000NAN%00:00 (00:00)Handelabra Games Inc.Handelabra Games Inc.
72 KNIGHTS May 30, 2016 $0.99N/A (N/A)20,000 .. 50,0000%00:00 (00:00)Arzola'sArzola's
73 Carcassonne - Tiles & Tactics Nov 29, 2017 $9.99N/A (N/A)50,000 .. 100,0000%00:00 (00:00)Asmodee Digital, Frima StudioAsmodee Digital
74 Tabletopia Nov 30, 2016 FreeN/A (N/A)200,000 .. 500,0000%00:00 (00:00)Tabletopia Inc.Tabletopia Inc.
75 Clue/Cluedo: The Classic Mystery Game May 17, 2018 $11.99N/A (N/A)20,000 .. 50,0000%00:00 (00:00)Marmalade Game Studio LtdMarmalade Game Studio Ltd
76 Twilight Struggle Apr 13, 2016 $9.99N/A (N/A)100,000 .. 200,0000%00:00 (00:00)Playdek, Inc.Asmodee Digital
77 Dresden Files Cooperative Card Game Oct 30, 2017 $16.99N/A (N/A)0 .. 20,000NAN%00:00 (00:00)Hidden Achievement LLCHidden Achievement LLC
78 Galaxy of Trian Board Game Oct 18, 2016 $4.99N/A (N/A)0 .. 20,0000%00:00 (00:00)Grey Wizard InnovativeGrey Wizard Innovative
79 Chinese Chess/ Elephant Game: 象棋/ 中国象棋/ 中國象棋 Oct 20, 2017 $9.99N/A (N/A)50,000 .. 100,0000%00:00 (00:00)Wang WenxiWang Wenxi
80 Revolution : Virtual Playspace Oct 5, 2016 $19.99N/A (N/A)0 .. 20,000NAN%00:00 (00:00)DragomDragom
81 Zen Chess: Mate in One Apr 10, 2018 $0.99N/A (N/A)0 .. 20,0000%00:00 (00:00)Minimol GamesMinimol Games
82 Mind Games Mar 4, 2016 $2.99N/A (N/A)0 .. 20,0000%00:00 (00:00)AK GamesRunServer
83 Ortus Arena, strategy board game online, FOR FREE Sep 28, 2016 FreeN/A (N/A)0 .. 20,0000%00:00 (00:00)Firebrush StudiosPlug In Digital
84 Fritz Chess 16 Steam Edition Apr 3, 2018 $49.99N/A (N/A)0 .. 20,000NAN%00:00 (00:00)ChessBase GmbHChessBase GmbH
85 FritzChess 15 Feb 22, 2016 $34.99N/A (N/A)0 .. 20,000NAN%00:00 (00:00)ChessBase GmbHChessBase GmbH
86 Throne of Lies The Online Game of Deceit Sep 29, 2017 $9.99N/A (N/A)100,000 .. 200,0000%00:00 (00:00)Imperium42® Game Studio, Dylan Hunt, "Xblade", Elsa Hunt, "FieryElsa", Adityaraj Rukhane, "Adiart", Vini A. PereiraImperium42® Game Studio
87 UNO Jan 3, 2017 $9.99N/A (N/A)500,000 .. 1,000,0004.76%00:49 (00:45)Ubisoft EntertainmentUbisoft Entertainment
88 Chess Ultra Jun 21, 2017 $12.99N/A (N/A)0 .. 20,000NAN%00:00 (00:00)RipstoneRipstone
89 WARMACHINE: Tactics Nov 20, 2014 FreeN/A (N/A)100,000 .. 200,0000%00:00 (00:00)WhiteMoon DreamsPrivateer Press Interactive
90 Quantum Chess Dec 12, 2016 $9.99N/A (N/A)0 .. 20,000NAN%00:00 (00:00)Quantum Realm Games, Broken Circle StudiosQuantum Realm Games
91 Egyptian Senet Aug 20, 2015 $4.99N/A (N/A)100,000 .. 200,0000%00:00 (00:00)Ezzat StudiosEzzat Studios
92 Unreal Estate Jun 16, 2017 N/AN/A (N/A)0 .. 20,0000%00:00 (00:00)Afterthought GamesAfterthought Games
93 Khet 2.0 Oct 1, 2014 $9.99N/A (N/A)50,000 .. 100,0000%00:00 (00:00)BlueLine GamesBlueLine Games
94 MONOPOLY PLUS Sep 7, 2017 $14.99N/A (N/A)200,000 .. 500,0005.88%01:15 (00:25)Ubisoft PuneUbisoft
95 TREBUCHET Jul 30, 2015 $5.99N/A (N/A)0 .. 20,000NAN%00:00 (00:00)iconical Ltd.iconical Ltd.
96 Terra Mystica Jun 8, 2017 $14.99N/A (N/A)0 .. 20,000NAN%00:00 (00:00)DIGIDICEDDIGIDICED
97 Fritz Chess 14 Sep 22, 2014 $39.99N/A (N/A)0 .. 20,000NAN%00:00 (00:00)ChessBaseViva Media
98 D&D Lords of Waterdeep Sep 1, 2017 $6.99N/A (N/A)50,000 .. 100,000NAN%00:00 (00:00)Playdek, Inc.Playdek, Inc.
99 Backgammon Blitz Nov 12, 2015 N/AN/A (N/A)0 .. 20,000NAN%00:00 (00:00)VooFoo StudiosNomad Games
100 Battle Chess II: Chinese Chess Jul 31, 2017 $9.99N/A (N/A)0 .. 20,000NAN%00:00 (00:00)Interplay Entertainment Corp.Interplay Entertainment Corp.
101 Tabletop Simulator Jun 5, 2015 $19.99N/A (N/A)1,000,000 .. 2,000,0003.64%01:25 (01:43)Berserk GamesBerserk Games
102 Immersion Chess May 15, 2017 FreeN/A (N/A)50,000 .. 100,0000%00:00 (00:00)ImmersionImmersion
103 THE GAME OF LIFE Nov 3, 2015 $4.99N/A (N/A)100,000 .. 200,0000%00:00 (00:00)Marmalade Game Studio LtdMarmalade Game Studio Ltd
104 Business Tour - Board Game with Online Multiplayer (大富翁) Jul 27, 2017 FreeN/A (N/A)2,000,000 .. 5,000,0003.11%00:51 (01:19)Creobit8Floor
105 Catan Universe Apr 25, 2017 FreeN/A (N/A)100,000 .. 200,0000%00:00 (00:00)ExozetUnited Soft Media
106 Longsword - Tabletop Tactics Jul 20, 2017 FreeN/A (N/A)0 .. 20,000NAN%00:00 (00:00)Zero Sum GamesIceberg Interactive
107 Sentinels of the Multiverse Dec 22, 2014 $9.99N/A (N/A)100,000 .. 200,0000%00:00 (00:00)Handelabra Games Inc.Handelabra Games Inc.
108 Battle Chess Apr 20, 2017 $9.99N/A (N/A)0 .. 20,000NAN%00:00 (00:00)Interplay Entertainment Corp.Interplay Entertainment Corp.
109 Splendor Sep 17, 2015 $9.99N/A (N/A)20,000 .. 50,0000%00:00 (00:00)Days of WonderDays of Wonder, Asmodee Digital
110 Ultimate General: Civil War Jul 14, 2017 $29.99N/A (N/A)100,000 .. 200,0000%00:00 (00:00)Game-LabsGame-Labs
111 Ascension: Deckbuilding Game Dec 16, 2014 $9.99N/A (N/A)50,000 .. 100,0000%00:00 (00:00)Playdek, Inc.Asmodee Digital
112 Mysterium: A Psychic Clue Game Jan 12, 2017 $6.99N/A (N/A)20,000 .. 50,0000%00:00 (00:00)Asmodee Digital, PlaysoftAsmodee Digital
113 Simply Chess Sep 11, 2015 FreeN/A (N/A)200,000 .. 500,0000%00:00 (00:00)BlueLine GamesBlueLine Games
114 Rento Fortune: Online Dice Board Game (大富翁) Jul 14, 2017 $4.99N/A (N/A)100,000 .. 200,0000%00:00 (00:00)LAN - GAMES LTDLAN - GAMES LTD
Overview

Tabletop

Games with this tag: 114
Average userscore: N/A%
Average metascore: 72.43%
Average playtime: 04:54
Total copies owned: 15,400,000
Average price: $13.13
Help

Owners: Estimated number of people owning this game. The number might be way too small for new releases and sometimes way too big for games that had free weekend event recently. Read more on About page.

Playtime: Average hours played in total per person that have actually launched this game since March 2009. This time is calculated for the whole lifetime, not for the particular year.

Average score: Average users and metacritic score for all games with this score assigned.

Average playtime: Average lifetime playtime for all games where this data is available.

Games in this genre: Self-explaining - number of games with this tag. Only inculdes games with sales data available.

Total copies owned: Refers to total copies of games with this tag acquired by users for the lifetime. Includes copies sold, downloaded for free and given out.

This number might be too small for recently released games or too big for games that had a free weekend in the last couple of months.

Graphs

Login required.

Please register or log in to see this information.

Login required.

Please register or log in to see this information.